createdAt,value
2017-10-20T00:00:50.510Z,0
2017-10-20T00:02:00.930Z,0
2017-10-20T00:03:11.337Z,0
2017-10-20T00:04:21.083Z,0
2017-10-20T00:05:31.167Z,0
2017-10-20T00:06:41.273Z,0
2017-10-20T00:07:51.356Z,0
2017-10-20T00:09:01.753Z,0
2017-10-20T00:10:11.835Z,0
2017-10-20T00:11:22.256Z,0
2017-10-20T00:12:32.676Z,0
2017-10-20T00:13:42.756Z,0
2017-10-20T00:14:53.165Z,0
2017-10-20T00:16:03.575Z,0
2017-10-20T00:17:13.969Z,0
2017-10-20T00:18:24.371Z,0
2017-10-20T00:19:34.788Z,0
2017-10-20T00:20:44.861Z,0
2017-10-20T00:21:55.258Z,0
2017-10-20T00:23:05.697Z,0
2017-10-20T00:24:15.789Z,0
2017-10-20T00:25:25.861Z,0
2017-10-20T00:26:35.679Z,0
2017-10-20T00:27:46.077Z,0
2017-10-20T00:28:56.473Z,0
2017-10-20T00:30:06.888Z,0
2017-10-20T00:31:17.329Z,0
2017-10-20T00:32:27.726Z,0
2017-10-20T00:33:38.153Z,0
2017-10-20T00:34:48.551Z,0
2017-10-20T00:35:58.626Z,0
2017-10-20T00:37:09.024Z,0
2017-10-20T00:38:19.112Z,0
2017-10-20T00:39:29.522Z,0
2017-10-20T00:40:39.940Z,0
2017-10-20T00:41:50.364Z,0
2017-10-20T00:43:00.444Z,0
2017-10-20T00:44:10.561Z,0
2017-10-20T00:45:20.615Z,0
2017-10-20T00:46:31.034Z,0
2017-10-20T00:47:41.434Z,0
2017-10-20T00:48:51.835Z,0
2017-10-20T00:50:02.311Z,0
2017-10-20T00:51:12.726Z,0
2017-10-20T00:52:23.130Z,0
2017-10-20T00:53:33.521Z,0
2017-10-20T00:54:43.604Z,0
2017-10-20T00:55:54.059Z,0
2017-10-20T00:57:04.135Z,0
2017-10-20T00:58:14.223Z,0
2017-10-20T00:59:24.318Z,0
2017-10-20T01:00:34.404Z,0
2017-10-20T01:01:44.805Z,0
2017-10-20T01:02:55.250Z,0
2017-10-20T01:04:05.650Z,0
2017-10-20T01:05:16.051Z,0
2017-10-20T01:06:26.114Z,0
2017-10-20T01:07:36.594Z,0
2017-10-20T01:08:46.655Z,0
2017-10-20T01:09:56.734Z,0
2017-10-20T01:11:07.141Z,0
2017-10-20T01:12:17.537Z,0
2017-10-20T01:13:27.652Z,0
2017-10-20T01:14:38.067Z,0
2017-10-20T01:15:48.481Z,0
2017-10-20T01:16:58.549Z,0
2017-10-20T01:18:09.282Z,0
2017-10-20T01:19:19.678Z,0
2017-10-20T01:20:29.766Z,0
2017-10-20T01:21:39.853Z,0
2017-10-20T01:22:50.259Z,0
2017-10-20T01:24:00.664Z,0
2017-10-20T01:25:11.076Z,0
2017-10-20T01:26:21.484Z,0
2017-10-20T01:27:31.903Z,0
2017-10-20T01:28:42.327Z,0
2017-10-20T01:29:52.748Z,0
2017-10-20T01:31:02.821Z,0
2017-10-20T01:32:13.258Z,0
2017-10-20T01:33:23.330Z,0
2017-10-20T01:34:33.742Z,0
2017-10-20T01:35:44.148Z,0
2017-10-20T01:36:54.214Z,0
2017-10-20T01:38:04.306Z,0
2017-10-20T01:39:14.718Z,0
2017-10-20T01:40:24.794Z,0
2017-10-20T01:41:34.556Z,0
2017-10-20T01:42:44.963Z,0
2017-10-20T01:43:55.365Z,0
2017-10-20T01:45:05.444Z,0
2017-10-20T01:46:15.523Z,0
2017-10-20T01:47:25.581Z,0
2017-10-20T01:48:36.060Z,0
2017-10-20T01:49:46.145Z,0
2017-10-20T01:50:56.545Z,0
2017-10-20T01:52:06.932Z,0
2017-10-20T01:53:17.021Z,0
2017-10-20T01:54:27.530Z,0
2017-10-20T01:55:37.927Z,0
2017-10-20T01:56:47.987Z,0
2017-10-20T01:57:58.380Z,0
2017-10-20T01:59:08.779Z,0
2017-10-20T02:00:18.869Z,0
2017-10-20T02:01:29.262Z,0
2017-10-20T02:02:39.338Z,0
2017-10-20T02:03:49.742Z,0
2017-10-20T02:05:00.142Z,0
2017-10-20T02:06:10.559Z,0
2017-10-20T02:07:20.630Z,0
2017-10-20T02:08:31.028Z,0
2017-10-20T02:09:41.448Z,0
2017-10-20T02:10:51.548Z,0
2017-10-20T02:12:02.019Z,0
2017-10-20T02:13:12.419Z,0
2017-10-20T02:14:22.830Z,0
2017-10-20T02:15:33.240Z,0
2017-10-20T02:16:42.994Z,0
2017-10-20T02:17:53.448Z,0
2017-10-20T02:19:03.858Z,0
2017-10-20T02:20:13.929Z,0
2017-10-20T02:21:24.577Z,0
2017-10-20T02:22:34.978Z,0
2017-10-20T02:23:45.120Z,0
2017-10-20T02:24:55.527Z,0
2017-10-20T02:26:05.925Z,0
2017-10-20T02:27:16.338Z,0
2017-10-20T02:28:26.744Z,0
2017-10-20T02:29:37.157Z,0
2017-10-20T02:30:47.579Z,0
2017-10-20T02:31:57.659Z,0
2017-10-20T02:33:07.421Z,0
2017-10-20T02:34:17.826Z,0
2017-10-20T02:35:28.233Z,0
2017-10-20T02:36:38.629Z,0
2017-10-20T02:37:48.702Z,0
2017-10-20T02:38:59.132Z,0
2017-10-20T02:40:09.560Z,0
2017-10-20T02:41:19.962Z,0
2017-10-20T02:42:30.364Z,0
2017-10-20T02:43:40.447Z,0
2017-10-20T02:44:50.856Z,0
2017-10-20T02:46:00.929Z,0
2017-10-20T02:47:11.336Z,0
2017-10-20T02:48:21.746Z,0
2017-10-20T02:49:32.145Z,0
2017-10-20T02:50:42.216Z,0
2017-10-20T02:51:52.627Z,0
2017-10-20T02:53:03.037Z,0
2017-10-20T02:54:13.111Z,0
2017-10-20T02:55:23.521Z,0
2017-10-20T02:56:33.275Z,0
2017-10-20T02:57:43.693Z,0
2017-10-20T02:58:53.827Z,0
2017-10-20T03:00:04.232Z,0
2017-10-20T03:01:14.652Z,0
2017-10-20T03:02:25.054Z,0
2017-10-20T03:34:04.940Z,0
2017-10-20T03:35:15.329Z,0
2017-10-20T03:36:25.711Z,0
2017-10-20T03:37:36.115Z,0
2017-10-20T03:38:46.191Z,0
2017-10-20T03:39:56.277Z,0
2017-10-20T03:41:06.678Z,0
2017-10-20T03:42:17.071Z,0
2017-10-20T03:43:27.141Z,0
2017-10-20T03:44:37.540Z,0
2017-10-20T03:45:47.983Z,0
2017-10-20T03:46:58.057Z,0
2017-10-20T03:48:07.802Z,0
2017-10-20T03:49:18.218Z,0
2017-10-20T03:50:28.635Z,0
2017-10-20T03:51:39.104Z,0
2017-10-20T03:52:49.509Z,0
2017-10-20T03:53:59.588Z,0
2017-10-20T03:55:09.652Z,0
2017-10-20T03:56:20.059Z,0
2017-10-20T03:57:29.800Z,0
2017-10-20T03:58:39.887Z,0
2017-10-20T03:59:50.284Z,0
2017-10-20T04:01:00.361Z,0
2017-10-20T04:02:10.770Z,0
2017-10-20T04:03:21.225Z,0
2017-10-20T04:04:31.633Z,0
2017-10-20T04:05:42.033Z,0
2017-10-20T04:06:52.452Z,0
2017-10-20T04:08:02.840Z,0
2017-10-20T04:09:13.306Z,0
2017-10-20T04:10:23.697Z,0
2017-10-20T04:11:34.088Z,0
2017-10-20T04:12:44.489Z,0
2017-10-20T04:13:54.563Z,0
2017-10-20T04:15:04.969Z,0
2017-10-20T04:16:15.379Z,0
2017-10-20T04:17:25.776Z,0
2017-10-20T04:18:36.179Z,0
2017-10-20T04:19:46.584Z,0
2017-10-20T04:20:57.047Z,0
2017-10-20T04:22:07.495Z,0
2017-10-20T04:23:17.888Z,0
2017-10-20T04:24:27.639Z,0
2017-10-20T04:25:37.388Z,0
2017-10-20T04:26:47.485Z,0
2017-10-20T04:27:57.895Z,0
2017-10-20T04:29:07.984Z,0
2017-10-20T04:30:17.742Z,0
2017-10-20T04:31:27.809Z,0
2017-10-20T04:32:38.213Z,0
2017-10-20T04:33:48.637Z,0
2017-10-20T04:34:58.712Z,0
2017-10-20T04:36:09.124Z,0
2017-10-20T04:37:19.522Z,0
2017-10-20T04:38:29.919Z,0
2017-10-20T04:39:40.325Z,0
2017-10-20T04:40:50.405Z,0
2017-10-20T04:42:00.817Z,0
2017-10-20T04:43:11.225Z,0
2017-10-20T04:44:21.297Z,0
2017-10-20T04:45:31.364Z,0
2017-10-20T04:46:41.775Z,0
2017-10-20T04:47:52.173Z,0
2017-10-20T04:49:02.590Z,0
2017-10-20T04:50:13.001Z,0
2017-10-20T04:51:23.418Z,0
2017-10-20T04:52:33.813Z,0
2017-10-20T04:53:44.204Z,0
2017-10-20T04:54:54.297Z,0
2017-10-20T04:56:04.759Z,0
2017-10-20T04:57:15.161Z,0
2017-10-20T04:58:25.574Z,0
2017-10-20T04:59:35.978Z,0
2017-10-20T05:00:46.387Z,0
2017-10-20T05:01:56.846Z,0
2017-10-20T05:03:06.909Z,0
2017-10-20T05:04:16.977Z,0
2017-10-20T05:05:27.065Z,0
2017-10-20T05:06:37.479Z,0
2017-10-20T05:07:47.942Z,0
2017-10-20T05:08:59.162Z,0
2017-10-20T05:10:09.239Z,0
2017-10-20T05:11:19.667Z,0
2017-10-20T05:12:29.759Z,0
2017-10-20T05:13:40.157Z,0
2017-10-20T05:14:50.573Z,0
2017-10-20T05:16:00.994Z,0
2017-10-20T05:17:11.426Z,0
2017-10-20T05:18:21.817Z,0
2017-10-20T05:19:31.888Z,0
2017-10-20T05:20:42.338Z,0
2017-10-20T05:21:52.751Z,0
2017-10-20T05:23:02.835Z,0
2017-10-20T05:24:12.916Z,0
2017-10-20T05:25:23.338Z,0
2017-10-20T05:26:33.738Z,0
2017-10-20T05:27:43.819Z,0
2017-10-20T05:28:54.223Z,0
2017-10-20T05:30:04.624Z,0
2017-10-20T05:31:15.041Z,5
2017-10-20T05:32:25.169Z,5
2017-10-20T05:33:35.280Z,5
2017-10-20T05:34:45.703Z,5
2017-10-20T05:35:56.113Z,5
2017-10-20T05:37:06.203Z,5
2017-10-20T05:38:16.627Z,5
2017-10-20T05:39:27.033Z,10
2017-10-20T05:40:37.440Z,10
2017-10-20T05:41:47.508Z,10
2017-10-20T05:42:57.905Z,10
2017-10-20T05:44:08.047Z,10
2017-10-20T05:45:17.789Z,10
2017-10-20T05:46:28.196Z,10
2017-10-20T05:47:38.602Z,15
2017-10-20T05:48:49.000Z,15
2017-10-20T05:49:59.066Z,15
2017-10-20T05:51:09.135Z,15
2017-10-20T05:52:19.557Z,15
2017-10-20T05:53:29.957Z,20
2017-10-20T05:54:40.351Z,20
2017-10-20T05:55:50.835Z,20
2017-10-20T05:57:01.231Z,20
2017-10-20T05:58:11.285Z,20
2017-10-20T05:59:21.681Z,20
2017-10-20T06:00:32.111Z,20
2017-10-20T06:01:42.579Z,25
2017-10-20T06:02:53.009Z,25
2017-10-20T06:04:03.083Z,25
2017-10-20T06:05:13.172Z,25
2017-10-20T06:06:23.237Z,25
2017-10-20T06:07:33.631Z,25
2017-10-20T06:08:44.024Z,25
2017-10-20T06:09:54.415Z,25
2017-10-20T06:11:04.811Z,25
2017-10-20T06:12:15.215Z,30
2017-10-20T06:13:25.666Z,30
2017-10-20T06:14:36.063Z,30
2017-10-20T06:15:46.472Z,30
2017-10-20T06:16:56.544Z,30
2017-10-20T06:18:06.942Z,25
2017-10-20T06:19:17.351Z,25
2017-10-20T06:20:27.435Z,25
2017-10-20T06:21:37.835Z,25
2017-10-20T06:22:47.914Z,30
2017-10-20T06:23:58.322Z,30
2017-10-20T06:25:08.728Z,30
2017-10-20T06:26:19.124Z,30
2017-10-20T06:27:29.530Z,35
2017-10-20T06:28:39.919Z,35
2017-10-20T06:29:50.000Z,35
2017-10-20T06:31:00.408Z,35
2017-10-20T06:32:10.148Z,35
2017-10-20T06:33:20.543Z,35
2017-10-20T06:34:30.947Z,35
2017-10-20T06:35:41.024Z,35
2017-10-20T06:36:51.146Z,35
2017-10-20T06:38:01.567Z,35
2017-10-20T06:39:11.949Z,35
2017-10-20T06:40:22.351Z,35
2017-10-20T06:41:32.439Z,35
2017-10-20T06:42:42.843Z,35
2017-10-20T06:43:53.246Z,40
2017-10-20T06:45:03.659Z,40
2017-10-20T06:46:13.741Z,40
2017-10-20T06:47:24.161Z,45
2017-10-20T06:48:34.221Z,45
2017-10-20T06:49:44.310Z,45
2017-10-20T06:50:54.397Z,45
2017-10-20T06:52:04.491Z,45
2017-10-20T06:53:14.921Z,45
2017-10-20T06:54:25.324Z,50
2017-10-20T06:55:35.719Z,50
2017-10-20T06:56:46.111Z,55
2017-10-20T06:57:56.509Z,55
2017-10-20T06:59:06.912Z,55
2017-10-20T07:00:17.371Z,55
2017-10-20T07:01:27.438Z,60
2017-10-20T07:02:37.828Z,60
2017-10-20T07:03:48.249Z,60
2017-10-20T07:04:58.668Z,60
2017-10-20T07:06:08.750Z,65
2017-10-20T07:07:19.162Z,60
2017-10-20T07:08:29.543Z,60
2017-10-20T07:09:39.938Z,60
2017-10-20T07:10:50.342Z,60
2017-10-20T07:12:00.788Z,60
2017-10-20T07:13:11.198Z,60
2017-10-20T07:14:21.606Z,60
2017-10-20T07:15:32.014Z,65
2017-10-20T07:16:42.404Z,65
2017-10-20T07:17:52.811Z,65
2017-10-20T07:19:02.891Z,60
2017-10-20T07:20:12.960Z,60
2017-10-20T07:21:23.052Z,55
2017-10-20T07:22:33.465Z,55
2017-10-20T07:23:43.536Z,60
2017-10-20T07:24:53.601Z,60
2017-10-20T07:26:03.990Z,60
2017-10-20T07:27:14.379Z,60
2017-10-20T07:28:25.824Z,60
2017-10-20T07:29:36.294Z,60
2017-10-20T07:30:46.708Z,60
2017-10-20T07:31:57.132Z,60
2017-10-20T07:33:07.532Z,65
2017-10-20T07:34:17.936Z,65
2017-10-20T07:35:28.358Z,70
2017-10-20T07:36:38.437Z,65
2017-10-20T07:37:48.837Z,70
2017-10-20T07:38:59.224Z,70
2017-10-20T07:40:09.622Z,70
2017-10-20T07:41:19.717Z,70
2017-10-20T07:42:29.788Z,70
2017-10-20T07:43:40.200Z,70
2017-10-20T07:44:50.599Z,75
2017-10-20T07:46:00.339Z,75
2017-10-20T07:47:10.778Z,75
2017-10-20T07:48:20.873Z,75
2017-10-20T07:49:31.287Z,75
2017-10-20T07:50:41.362Z,80
2017-10-20T07:51:51.459Z,80
2017-10-20T07:53:01.905Z,80
2017-10-20T07:54:12.333Z,75
2017-10-20T07:55:22.734Z,80
2017-10-20T07:56:32.831Z,80
2017-10-20T07:57:43.248Z,80
2017-10-20T07:58:53.321Z,80
2017-10-20T08:00:03.402Z,80
2017-10-20T08:01:13.814Z,80
2017-10-20T08:02:24.223Z,85
2017-10-20T08:03:34.637Z,85
2017-10-20T08:04:44.439Z,85
2017-10-20T08:05:54.533Z,85
2017-10-20T08:07:04.932Z,85
2017-10-20T08:08:15.338Z,85
2017-10-20T08:09:25.745Z,85
2017-10-20T08:10:36.155Z,90
2017-10-20T08:11:46.219Z,95
2017-10-20T08:12:56.304Z,95
2017-10-20T08:14:06.692Z,95
2017-10-20T08:15:17.107Z,95
2017-10-20T08:16:27.180Z,95
2017-10-20T08:17:37.574Z,95
2017-10-20T08:18:47.981Z,95
2017-10-20T08:19:58.397Z,95
2017-10-20T08:21:08.787Z,95
2017-10-20T08:22:18.917Z,95
2017-10-20T08:23:29.313Z,90
2017-10-20T08:24:39.733Z,85
2017-10-20T08:25:49.815Z,85
2017-10-20T08:26:59.915Z,85
2017-10-20T08:28:10.004Z,90
2017-10-20T08:29:20.427Z,95
2017-10-20T08:30:30.828Z,100
2017-10-20T08:31:40.578Z,100
2017-10-20T08:32:50.975Z,100
2017-10-20T08:34:01.381Z,90
2017-10-20T08:35:11.824Z,90
2017-10-20T08:36:21.559Z,90
2017-10-20T08:37:31.969Z,95
2017-10-20T08:38:42.376Z,95
2017-10-20T08:39:52.450Z,100
2017-10-20T08:41:02.533Z,105
2017-10-20T08:42:13.015Z,105
2017-10-20T08:43:23.421Z,105
2017-10-20T08:44:33.828Z,105
2017-10-20T08:45:44.232Z,100
2017-10-20T08:46:54.632Z,105
2017-10-20T08:48:05.048Z,100
2017-10-20T08:49:15.444Z,105
2017-10-20T08:50:25.850Z,105
2017-10-20T08:51:36.253Z,105
2017-10-20T08:52:46.663Z,105
2017-10-20T08:53:56.393Z,105
2017-10-20T08:55:06.785Z,100
2017-10-20T08:56:17.197Z,100
2017-10-20T08:57:27.251Z,100
2017-10-20T08:58:37.666Z,100
2017-10-20T08:59:47.748Z,100
2017-10-20T09:00:58.161Z,100
2017-10-20T09:02:08.248Z,105
2017-10-20T09:03:18.691Z,105
2017-10-20T09:04:29.140Z,105
2017-10-20T09:05:38.979Z,110
2017-10-20T09:06:49.132Z,105
2017-10-20T09:07:59.558Z,105
2017-10-20T09:09:10.045Z,105
2017-10-20T09:10:20.583Z,105
2017-10-20T09:11:30.784Z,100
2017-10-20T09:12:40.911Z,100
2017-10-20T09:13:51.333Z,110
2017-10-20T09:15:01.741Z,100
2017-10-20T09:16:11.824Z,100
2017-10-20T09:17:22.251Z,105
2017-10-20T09:18:32.345Z,110
2017-10-20T09:19:42.424Z,110
2017-10-20T09:20:52.814Z,105
2017-10-20T09:22:03.216Z,105
2017-10-20T09:23:13.618Z,110
2017-10-20T09:24:23.695Z,110
2017-10-20T09:25:34.082Z,110
2017-10-20T09:26:44.475Z,110
2017-10-20T09:27:54.567Z,110
2017-10-20T09:29:05.020Z,105
2017-10-20T09:30:15.097Z,100
2017-10-20T09:31:24.834Z,100
2017-10-20T09:32:34.904Z,95
2017-10-20T09:33:45.324Z,100
2017-10-20T09:34:55.218Z,110
2017-10-20T09:36:05.643Z,110
2017-10-20T09:37:15.735Z,110
2017-10-20T09:38:25.816Z,110
2017-10-20T09:39:36.226Z,110
2017-10-20T09:40:46.670Z,110
2017-10-20T09:41:57.086Z,115
2017-10-20T09:43:07.166Z,115
2017-10-20T09:44:17.568Z,115
2017-10-20T09:45:27.972Z,110
2017-10-20T09:46:38.380Z,110
2017-10-20T09:47:48.456Z,115
2017-10-20T09:48:59.070Z,110
2017-10-20T09:50:09.162Z,110
2017-10-20T09:51:19.249Z,110
2017-10-20T09:52:29.704Z,110
2017-10-20T09:53:40.112Z,110
2017-10-20T09:54:50.518Z,110
2017-10-20T09:56:00.929Z,110
2017-10-20T09:57:11.338Z,115
2017-10-20T09:58:21.807Z,115
2017-10-20T09:59:32.212Z,115
2017-10-20T10:00:42.625Z,115
2017-10-20T10:01:53.035Z,115
2017-10-20T10:03:02.794Z,105
2017-10-20T10:04:12.875Z,110
2017-10-20T10:05:23.315Z,110
2017-10-20T10:06:34.298Z,110
2017-10-20T10:07:44.732Z,110
2017-10-20T10:08:54.807Z,110
2017-10-20T10:10:05.307Z,110
2017-10-20T10:11:15.733Z,110
2017-10-20T10:12:26.149Z,120
2017-10-20T10:13:36.996Z,125
2017-10-20T10:14:47.499Z,125
2017-10-20T10:15:58.018Z,125
2017-10-20T10:17:08.546Z,125
2017-10-20T10:18:18.981Z,125
2017-10-20T10:19:29.391Z,125
2017-10-20T10:20:39.813Z,130
2017-10-20T10:21:50.226Z,125
2017-10-20T10:22:59.978Z,125
2017-10-20T10:24:10.419Z,140
2017-10-20T10:25:20.834Z,145
2017-10-20T10:26:31.264Z,150
2017-10-20T10:27:41.716Z,160
2017-10-20T10:28:52.143Z,155
2017-10-20T10:30:02.548Z,150
2017-10-20T10:31:12.991Z,145
2017-10-20T10:32:23.425Z,140
2017-10-20T10:33:33.912Z,135
2017-10-20T10:34:45.352Z,130
2017-10-20T10:35:55.774Z,125
2017-10-20T10:37:06.209Z,120
2017-10-20T10:38:16.609Z,115
2017-10-20T10:39:26.757Z,110
2017-10-20T10:40:37.178Z,110
2017-10-20T10:41:47.256Z,105
2017-10-20T10:42:57.344Z,110
2017-10-20T10:44:07.789Z,110
2017-10-20T10:45:18.241Z,110
2017-10-20T10:46:28.013Z,110
2017-10-20T10:47:38.110Z,110
2017-10-20T10:48:48.207Z,110
2017-10-20T10:49:58.309Z,115
2017-10-20T10:51:08.739Z,115
2017-10-20T10:52:19.159Z,125
2017-10-20T10:53:29.585Z,125
2017-10-20T10:54:40.051Z,115
2017-10-20T10:55:50.442Z,110
2017-10-20T10:57:01.237Z,110
2017-10-20T10:58:10.983Z,110
2017-10-20T10:59:21.413Z,110
2017-10-20T11:00:31.844Z,105
2017-10-20T11:01:42.252Z,105
2017-10-20T11:02:52.341Z,110
2017-10-20T11:04:02.753Z,110
2017-10-20T11:05:12.521Z,110
2017-10-20T11:06:22.927Z,110
2017-10-20T11:07:33.334Z,110
2017-10-20T11:08:43.765Z,110
2017-10-20T11:09:53.846Z,110
2017-10-20T11:11:03.933Z,110
2017-10-20T11:12:14.027Z,105
2017-10-20T11:13:24.447Z,105
2017-10-20T11:14:34.605Z,105
2017-10-20T11:15:45.004Z,110
2017-10-20T11:16:55.409Z,105
2017-10-20T11:18:05.818Z,115
2017-10-20T11:19:15.906Z,110
2017-10-20T11:20:25.699Z,115
2017-10-20T11:21:36.119Z,115
2017-10-20T11:22:46.203Z,120
2017-10-20T11:23:56.621Z,120
2017-10-20T11:25:07.044Z,125
2017-10-20T11:26:17.472Z,125
2017-10-20T11:27:27.891Z,130
2017-10-20T11:28:38.346Z,130
2017-10-20T11:29:48.429Z,130
2017-10-20T11:30:58.848Z,135
2017-10-20T11:32:09.272Z,135
2017-10-20T11:33:19.701Z,135
2017-10-20T11:34:30.117Z,125
2017-10-20T11:35:40.560Z,120
2017-10-20T11:36:50.960Z,120
2017-10-20T11:38:01.449Z,115
2017-10-20T11:39:11.873Z,110
2017-10-20T11:40:21.958Z,105
2017-10-20T11:41:32.385Z,95
2017-10-20T11:42:42.450Z,90
2017-10-20T11:43:52.860Z,90
2017-10-20T11:45:03.336Z,85
2017-10-20T11:46:13.774Z,85
2017-10-20T11:47:24.214Z,80
2017-10-20T11:48:34.646Z,80
2017-10-20T11:49:45.063Z,80
2017-10-20T11:50:55.561Z,85
2017-10-20T11:52:05.990Z,90
2017-10-20T11:53:16.421Z,90
2017-10-20T11:54:26.848Z,90
2017-10-20T11:55:36.597Z,85
2017-10-20T11:56:46.740Z,90
2017-10-20T11:57:56.814Z,100
2017-10-20T11:59:07.236Z,100
2017-10-20T12:00:17.684Z,105
2017-10-20T12:01:28.080Z,105
2017-10-20T12:02:38.512Z,105
2017-10-20T12:03:48.967Z,105
2017-10-20T12:04:59.389Z,105
2017-10-20T12:06:09.819Z,100
2017-10-20T12:07:20.242Z,95
2017-10-20T12:08:30.331Z,90
2017-10-20T12:09:40.756Z,85
2017-10-20T12:10:50.860Z,85
2017-10-20T12:12:01.279Z,90
2017-10-20T12:13:11.690Z,90
2017-10-20T12:14:22.112Z,95
2017-10-20T12:15:32.195Z,100
2017-10-20T12:16:42.617Z,100
2017-10-20T12:17:53.044Z,100
2017-10-20T12:19:04.402Z,100
2017-10-20T12:20:14.831Z,100
2017-10-20T12:21:25.241Z,105
2017-10-20T12:22:35.663Z,105
2017-10-20T12:23:46.089Z,110
2017-10-20T12:24:56.526Z,110
2017-10-20T12:26:06.632Z,110
2017-10-20T12:27:17.061Z,110
2017-10-20T12:28:27.139Z,110
2017-10-20T12:29:37.206Z,110
2017-10-20T12:30:47.701Z,110
2017-10-20T12:31:58.128Z,110
2017-10-20T12:33:08.536Z,110
2017-10-20T12:34:18.622Z,105
2017-10-20T12:35:29.057Z,100
2017-10-20T12:36:39.539Z,95
2017-10-20T12:37:49.971Z,95
2017-10-20T12:39:00.394Z,95
2017-10-20T12:40:10.822Z,95
2017-10-20T12:41:21.255Z,95
2017-10-20T12:42:31.676Z,95
2017-10-20T12:43:41.772Z,100
2017-10-20T12:44:52.195Z,105
2017-10-20T12:46:02.280Z,105
2017-10-20T12:47:12.705Z,105
2017-10-20T12:48:23.108Z,105
2017-10-20T12:49:33.541Z,105
2017-10-20T12:50:43.967Z,105
2017-10-20T12:51:54.383Z,110
2017-10-20T12:53:04.490Z,110
2017-10-20T12:54:14.967Z,115
2017-10-20T12:55:25.373Z,115
2017-10-20T12:56:35.788Z,115
2017-10-20T12:57:46.206Z,115
2017-10-20T12:58:56.615Z,120
2017-10-20T13:00:07.026Z,125
2017-10-20T13:01:17.456Z,130
2017-10-20T13:02:27.872Z,130
2017-10-20T13:03:37.956Z,130
2017-10-20T13:04:48.042Z,130
2017-10-20T13:05:57.798Z,135
2017-10-20T13:07:07.938Z,130
2017-10-20T13:08:18.373Z,125
2017-10-20T13:09:28.821Z,125
2017-10-20T13:10:39.245Z,115
2017-10-20T13:11:49.691Z,110
2017-10-20T13:13:00.146Z,110
2017-10-20T13:14:10.563Z,110
2017-10-20T13:15:21.011Z,110
2017-10-20T13:16:31.429Z,105
2017-10-20T13:17:41.885Z,105
2017-10-20T13:18:52.042Z,105
2017-10-20T13:20:02.146Z,110
2017-10-20T13:21:12.598Z,110
2017-10-20T13:22:23.035Z,115
2017-10-20T13:23:33.487Z,110
2017-10-20T13:24:43.963Z,100
2017-10-20T13:25:54.404Z,90
2017-10-20T13:27:04.835Z,85
2017-10-20T13:28:15.247Z,90
2017-10-20T13:29:25.676Z,100
2017-10-20T13:30:35.809Z,105
2017-10-20T13:31:46.250Z,105
2017-10-20T13:32:56.368Z,110
2017-10-20T13:34:06.774Z,105
2017-10-20T13:35:16.867Z,110
2017-10-20T13:36:27.362Z,105
2017-10-20T13:37:37.434Z,110
2017-10-20T13:38:47.835Z,110
2017-10-20T13:39:58.255Z,115
2017-10-20T13:41:08.041Z,120
2017-10-20T13:42:18.505Z,120
2017-10-20T13:43:28.589Z,115
2017-10-20T13:44:38.687Z,120
2017-10-20T13:45:48.448Z,120
2017-10-20T13:46:58.853Z,120
2017-10-20T13:48:08.999Z,115
2017-10-20T13:49:19.435Z,115
2017-10-20T13:50:29.537Z,110
2017-10-20T13:51:39.949Z,105
2017-10-20T13:52:50.335Z,105
2017-10-20T13:54:00.147Z,95
2017-10-20T13:55:10.238Z,90
2017-10-20T13:56:19.985Z,85
2017-10-20T13:57:30.423Z,85
2017-10-20T13:58:40.879Z,85
2017-10-20T13:59:51.296Z,85
2017-10-20T14:01:01.738Z,80
2017-10-20T14:02:12.161Z,80
2017-10-20T14:03:22.248Z,75
2017-10-20T14:04:31.654Z,75
2017-10-20T14:05:42.165Z,75
2017-10-20T14:06:52.573Z,70
2017-10-20T14:08:03.031Z,70
2017-10-20T14:09:12.815Z,70
2017-10-20T14:10:23.261Z,70
2017-10-20T14:11:33.677Z,75
2017-10-20T14:12:44.094Z,70
2017-10-20T14:13:54.532Z,70
2017-10-20T14:15:04.957Z,70
2017-10-20T14:16:15.416Z,70
2017-10-20T14:17:25.899Z,70
2017-10-20T14:18:35.980Z,65
2017-10-20T14:19:46.412Z,65
2017-10-20T14:20:56.827Z,55
2017-10-20T14:22:07.253Z,55
2017-10-20T14:23:17.742Z,50
2017-10-20T14:24:28.173Z,40
2017-10-20T14:25:38.604Z,40
2017-10-20T14:26:49.035Z,35
2017-10-20T14:27:59.155Z,30
2017-10-20T14:29:09.628Z,30
2017-10-20T14:30:20.060Z,30
2017-10-20T14:31:30.499Z,35
2017-10-20T14:32:40.576Z,35
2017-10-20T14:33:51.025Z,40
2017-10-20T14:35:01.153Z,40
2017-10-20T14:36:11.680Z,35
2017-10-20T14:37:22.092Z,35
2017-10-20T14:38:32.512Z,30
2017-10-20T14:39:42.271Z,30
2017-10-20T14:40:52.731Z,30
2017-10-20T14:42:03.151Z,30
2017-10-20T14:43:13.596Z,30
2017-10-20T14:44:24.077Z,25
2017-10-20T14:45:34.483Z,25
2017-10-20T14:46:44.570Z,25
2017-10-20T14:47:55.002Z,25
2017-10-20T14:49:05.425Z,25
2017-10-20T14:50:15.864Z,25
2017-10-20T14:51:26.304Z,25
2017-10-20T14:52:36.389Z,20
2017-10-20T14:53:46.817Z,20
2017-10-20T14:54:56.922Z,25
2017-10-20T14:56:07.339Z,25
2017-10-20T14:57:17.449Z,20
2017-10-20T14:58:28.263Z,20
2017-10-20T14:59:38.352Z,20
2017-10-20T15:00:48.433Z,20
2017-10-20T15:01:58.558Z,25
2017-10-20T15:03:08.310Z,25
2017-10-20T15:04:18.128Z,25
2017-10-20T15:05:28.553Z,25
2017-10-20T15:06:38.635Z,25
2017-10-20T15:07:49.043Z,25
2017-10-20T15:08:59.438Z,25
2017-10-20T15:10:09.876Z,25
2017-10-20T15:11:20.290Z,25
2017-10-20T15:12:30.739Z,25
2017-10-20T15:13:41.176Z,25
2017-10-20T15:14:51.252Z,25
2017-10-20T15:16:01.690Z,25
2017-10-20T15:17:11.809Z,25
2017-10-20T15:18:21.878Z,25
2017-10-20T15:19:32.286Z,25
2017-10-20T15:20:42.711Z,25
2017-10-20T15:21:53.182Z,25
2017-10-20T15:23:03.614Z,25
2017-10-20T15:24:14.056Z,20
2017-10-20T15:25:24.486Z,20
2017-10-20T15:26:34.580Z,20
2017-10-20T15:27:45.030Z,15
2017-10-20T15:28:55.443Z,15
2017-10-20T15:30:05.539Z,15
2017-10-20T15:31:15.622Z,15
2017-10-20T15:32:26.036Z,15
2017-10-20T15:33:36.483Z,10
2017-10-20T15:34:46.606Z,10
2017-10-20T15:35:57.052Z,10
2017-10-20T15:37:07.715Z,10
2017-10-20T15:38:18.129Z,10
2017-10-20T15:39:28.565Z,10
2017-10-20T15:40:37.988Z,5
2017-10-20T15:41:48.414Z,5
2017-10-20T15:42:58.844Z,5
2017-10-20T15:44:09.274Z,5
2017-10-20T15:45:19.685Z,5
2017-10-20T15:46:29.770Z,5
2017-10-20T15:47:40.260Z,5
2017-10-20T15:48:50.344Z,5
2017-10-20T15:50:00.811Z,0
2017-10-20T15:51:10.874Z,0
2017-10-20T15:52:20.975Z,0
2017-10-20T15:53:31.474Z,0
2017-10-20T15:54:41.568Z,0
2017-10-20T15:55:52.005Z,0
2017-10-20T15:57:02.517Z,0
2017-10-20T15:58:12.925Z,0
2017-10-20T15:59:23.352Z,0
2017-10-20T16:00:33.759Z,0
2017-10-20T16:01:44.164Z,0
2017-10-20T16:02:54.633Z,0
2017-10-20T16:04:05.867Z,0
2017-10-20T16:05:15.873Z,0
2017-10-20T16:06:26.290Z,0
2017-10-20T16:07:36.393Z,0
2017-10-20T16:08:46.220Z,0
2017-10-20T16:09:56.670Z,0
2017-10-20T16:11:07.145Z,0
2017-10-20T16:12:17.562Z,0
2017-10-20T16:13:27.648Z,0
2017-10-20T16:14:38.114Z,0
2017-10-20T16:15:48.529Z,0
2017-10-20T16:16:58.963Z,0
2017-10-20T16:18:09.374Z,0
2017-10-20T16:19:19.785Z,0
2017-10-20T16:20:30.255Z,0
2017-10-20T16:21:40.681Z,0
2017-10-20T16:22:51.075Z,0
2017-10-20T16:24:01.481Z,0
2017-10-20T16:25:11.923Z,0
2017-10-20T16:26:22.414Z,0
2017-10-20T16:27:32.884Z,0
2017-10-20T16:28:43.022Z,0
2017-10-20T16:29:53.480Z,0
2017-10-20T16:31:03.909Z,0
2017-10-20T16:32:14.395Z,0
2017-10-20T16:33:24.526Z,0
2017-10-20T16:34:34.957Z,0
2017-10-20T16:35:45.041Z,0
2017-10-20T16:36:55.463Z,0
2017-10-20T16:38:05.947Z,0
2017-10-20T16:39:16.045Z,0
2017-10-20T16:40:26.151Z,0
2017-10-20T16:41:36.570Z,0
2017-10-20T16:42:47.008Z,0
2017-10-20T16:43:57.476Z,0
2017-10-20T16:45:07.553Z,0
2017-10-20T16:46:17.660Z,0
2017-10-20T16:47:28.089Z,0
2017-10-20T16:48:38.516Z,0
2017-10-20T16:49:48.992Z,0
2017-10-20T16:50:59.102Z,0
2017-10-20T16:52:09.512Z,0
2017-10-20T16:53:19.937Z,0
2017-10-20T16:54:30.395Z,0
2017-10-20T16:55:40.807Z,0
2017-10-20T16:56:51.143Z,0
2017-10-20T16:58:01.593Z,0
2017-10-20T16:59:11.659Z,0
2017-10-20T17:00:22.080Z,0
2017-10-20T17:01:32.589Z,0
2017-10-20T17:02:43.002Z,0
2017-10-20T17:03:53.103Z,0
2017-10-20T17:05:03.210Z,0
2017-10-20T17:06:13.651Z,0
2017-10-20T17:07:24.118Z,0
2017-10-20T17:08:34.211Z,0
2017-10-20T17:09:44.628Z,0
2017-10-20T17:10:54.704Z,0
2017-10-20T17:12:05.120Z,0
2017-10-20T17:13:16.888Z,0
2017-10-20T17:14:27.350Z,0
2017-10-20T17:15:37.765Z,0
2017-10-20T17:16:48.181Z,0
2017-10-20T17:17:58.593Z,0